Time;durP1;ratioP1;P1;durP2;ratioP2;P2;SDS_P1;SDS_P2;PMS_P1;PMS_P2;Temp;Humidity;BMP_temperature;BMP_pressure;BME280_temperature;BME280_humidity;BME280_pressure;Samples;Min_cycle;Max_cycle;Signal;HPM_P1;HPM_P2
2023/12/25 00:00:42;;;;;;;9.60;4.35;;;11.90;99.90;;;;;;4980662;28;89613;-33
2023/12/25 00:03:08;;;;;;;9.32;5.00;;;11.90;99.90;;;;;;4979249;28;88362;-32
2023/12/25 00:05:33;;;;;;;14.15;4.25;;;11.80;99.90;;;;;;4980399;28;89898;-32
2023/12/25 00:07:59;;;;;;;14.55;3.53;;;11.90;99.90;;;;;;4980055;28;90222;-31
2023/12/25 00:10:24;;;;;;;6.85;3.78;;;11.90;99.90;;;;;;4979972;28;89434;-33
2023/12/25 00:12:50;;;;;;;11.05;4.30;;;11.90;99.90;;;;;;4981053;28;88854;-30
2023/12/25 00:15:16;;;;;;;7.47;3.90;;;11.80;99.90;;;;;;4979802;28;89316;-31
2023/12/25 00:17:41;;;;;;;4.88;3.13;;;11.80;99.90;;;;;;4980733;28;90291;-32
2023/12/25 00:20:07;;;;;;;8.30;3.10;;;11.80;99.90;;;;;;4980555;28;89263;-32
2023/12/25 00:22:33;;;;;;;12.70;4.25;;;11.80;99.90;;;;;;4977279;28;88932;-30
2023/12/25 00:24:58;;;;;;;6.32;3.10;;;11.80;99.90;;;;;;4980761;28;91579;-31
2023/12/25 00:27:24;;;;;;;10.57;4.07;;;11.90;99.90;;;;;;4979057;28;90560;-32
2023/12/25 00:29:49;;;;;;;10.05;3.38;;;11.80;99.90;;;;;;4979658;28;90746;-33
2023/12/25 00:32:16;;;;;;;3.97;2.63;;;11.80;99.90;;;;;;4979622;28;89158;-33
2023/12/25 00:34:42;;;;;;;10.23;4.18;;;11.80;99.90;;;;;;4980162;28;90149;-32
2023/12/25 00:37:08;;;;;;;3.17;2.45;;;11.80;99.90;;;;;;4980281;28;89645;-32
2023/12/25 00:39:34;;;;;;;9.77;3.00;;;11.80;99.90;;;;;;4980192;28;91012;-31
2023/12/25 00:42:00;;;;;;;11.65;4.50;;;11.80;99.90;;;;;;4979991;28;88549;-31
2023/12/25 00:44:25;;;;;;;7.15;2.88;;;11.80;99.90;;;;;;4979721;28;89808;-30
2023/12/25 00:46:51;;;;;;;9.05;3.47;;;11.80;99.90;;;;;;4979746;28;89986;-33
2023/12/25 00:49:18;;;;;;;14.45;3.08;;;11.80;99.90;;;;;;4979534;28;89464;-33
2023/12/25 00:51:44;;;;;;;15.23;4.07;;;11.80;99.90;;;;;;4979139;28;89891;-31
2023/12/25 00:54:09;;;;;;;16.02;4.75;;;11.70;99.90;;;;;;4979884;28;89005;-32
2023/12/25 00:56:35;;;;;;;11.55;4.72;;;11.70;99.90;;;;;;4979657;28;89237;-32
2023/12/25 00:59:00;;;;;;;6.63;1.95;;;11.70;99.90;;;;;;4978985;28;89368;-34
2023/12/25 01:01:26;;;;;;;8.20;2.67;;;11.70;99.90;;;;;;4980243;28;89359;-31
2023/12/25 01:03:52;;;;;;;8.27;3.20;;;11.60;99.90;;;;;;4979204;28;89152;-31
2023/12/25 01:06:17;;;;;;;5.82;2.88;;;11.70;99.90;;;;;;4979903;28;90727;-31
2023/12/25 01:08:43;;;;;;;9.73;2.85;;;11.60;99.90;;;;;;4979104;28;89929;-31
2023/12/25 01:11:08;;;;;;;10.65;3.45;;;11.60;99.90;;;;;;4978950;28;89414;-33
2023/12/25 01:13:34;;;;;;;8.35;3.75;;;11.60;99.90;;;;;;4978988;28;90439;-30
2023/12/25 01:16:00;;;;;;;3.83;2.30;;;11.60;99.90;;;;;;4978904;28;89998;-33
2023/12/25 01:18:25;;;;;;;15.48;3.13;;;11.50;99.90;;;;;;4979256;28;90442;-32
2023/12/25 01:20:51;;;;;;;7.50;3.28;;;11.50;99.90;;;;;;4979225;28;88556;-31
2023/12/25 01:23:16;;;;;;;5.72;1.95;;;11.50;99.90;;;;;;4979431;28;90208;-33
2023/12/25 01:25:42;;;;;;;8.75;2.00;;;11.50;99.90;;;;;;4979685;28;90237;-32
2023/12/25 01:28:07;;;;;;;7.57;3.05;;;11.40;99.90;;;;;;4979221;28;89809;-31
2023/12/25 01:30:33;;;;;;;3.83;2.15;;;11.40;99.90;;;;;;4979015;28;88264;-31
2023/12/25 01:32:58;;;;;;;6.60;2.97;;;11.40;99.90;;;;;;4979163;28;90386;-32
2023/12/25 01:35:24;;;;;;;4.38;2.75;;;11.40;99.90;;;;;;4979393;28;88619;-33
2023/12/25 01:37:50;;;;;;;7.97;1.90;;;11.30;99.90;;;;;;4978997;28;89595;-33
2023/12/25 01:40:17;;;;;;;6.40;3.75;;;11.30;99.90;;;;;;4979227;28;90067;-30
2023/12/25 01:42:43;;;;;;;7.97;2.30;;;11.30;99.90;;;;;;4978143;28;90703;-30
2023/12/25 01:45:10;;;;;;;10.40;3.50;;;11.20;99.90;;;;;;4978636;28;89246;-31
2023/12/25 01:47:36;;;;;;;4.30;2.40;;;11.20;99.90;;;;;;4978003;28;89686;-33
2023/12/25 01:50:04;;;;;;;7.50;2.65;;;11.20;99.90;;;;;;4979261;28;88028;-32
2023/12/25 01:52:30;;;;;;;11.20;4.00;;;11.20;99.90;;;;;;4978625;28;91550;-31
2023/12/25 01:54:59;;;;;;;7.55;2.42;;;11.20;99.90;;;;;;4979070;28;90459;-33
2023/12/25 01:57:26;;;;;;;4.25;2.05;;;11.20;99.90;;;;;;4967558;28;89615;-30
2023/12/25 01:59:51;;;;;;;5.22;2.92;;;11.20;99.90;;;;;;4978557;28;88524;-30
2023/12/25 02:02:20;;;;;;;5.47;2.63;;;11.10;99.90;;;;;;4978664;28;90288;-32
2023/12/25 02:04:46;;;;;;;6.15;2.15;;;11.10;99.90;;;;;;4978464;28;90720;-29
2023/12/25 02:07:13;;;;;;;5.80;2.13;;;11.10;99.90;;;;;;4978995;28;90961;-31
2023/12/25 02:09:39;;;;;;;5.63;2.72;;;11.10;99.90;;;;;;4978771;28;89552;-32
2023/12/25 02:12:05;;;;;;;7.47;2.20;;;11.10;99.90;;;;;;4979023;28;89370;-32
2023/12/25 02:14:30;;;;;;;5.88;2.70;;;11.10;99.90;;;;;;4978698;28;89901;-29
2023/12/25 02:16:56;;;;;;;6.35;2.13;;;11.10;99.90;;;;;;4978862;28;89406;-31
2023/12/25 02:19:26;;;;;;;6.53;2.67;;;11.10;99.90;;;;;;4978959;28;89626;-29
2023/12/25 02:21:51;;;;;;;7.30;2.55;;;11.10;99.90;;;;;;4979660;28;91865;-30
2023/12/25 02:24:22;;;;;;;8.20;2.92;;;11.10;99.90;;;;;;4981482;28;90222;-31
2023/12/25 02:26:48;;;;;;;4.07;1.90;;;11.10;99.90;;;;;;4982020;28;89423;-33
2023/12/25 02:29:13;;;;;;;9.93;1.75;;;11.10;99.90;;;;;;4981628;28;89366;-32
2023/12/25 02:31:39;;;;;;;6.65;2.75;;;11.10;99.90;;;;;;4982100;28;91263;-32
2023/12/25 02:34:05;;;;;;;15.15;3.60;;;11.10;99.90;;;;;;4981075;28;89770;-30
2023/12/25 02:36:30;;;;;;;3.00;2.17;;;11.10;99.90;;;;;;4982184;28;89907;-30
2023/12/25 02:38:56;;;;;;;5.60;2.63;;;11.10;99.90;;;;;;4981842;28;87575;-30
2023/12/25 02:41:21;;;;;;;7.32;1.95;;;11.10;99.90;;;;;;4981253;28;90621;-32
2023/12/25 02:43:47;;;;;;;9.07;2.95;;;11.10;99.90;;;;;;4981118;28;90701;-30
2023/12/25 02:46:13;;;;;;;3.38;2.35;;;11.10;99.90;;;;;;4981782;28;89889;-30
2023/12/25 02:48:38;;;;;;;3.22;2.38;;;11.10;99.90;;;;;;4982104;28;88062;-30
2023/12/25 02:51:04;;;;;;;11.63;2.65;;;11.10;99.90;;;;;;4982005;28;90309;-31
2023/12/25 02:53:31;;;;;;;7.03;1.95;;;11.10;99.90;;;;;;4981022;28;90820;-31
2023/12/25 02:55:56;;;;;;;10.10;1.98;;;11.00;99.90;;;;;;4980885;28;89963;-33
2023/12/25 02:58:22;;;;;;;3.03;2.75;;;11.10;99.90;;;;;;4981910;28;89829;-30
2023/12/25 03:00:48;;;;;;;8.90;2.55;;;11.00;99.90;;;;;;4981595;28;90460;-30
2023/12/25 03:03:13;;;;;;;7.22;2.75;;;11.00;99.90;;;;;;4981223;28;89970;-30
2023/12/25 03:05:40;;;;;;;3.38;1.48;;;11.10;99.90;;;;;;4982581;28;89409;-29
2023/12/25 03:08:06;;;;;;;5.80;2.13;;;11.10;99.90;;;;;;4980791;28;88011;-28
2023/12/25 03:10:32;;;;;;;3.60;1.65;;;11.10;99.90;;;;;;4982074;28;89905;-34
2023/12/25 03:12:57;;;;;;;3.67;1.65;;;11.10;99.90;;;;;;4981357;28;90386;-33
2023/12/25 03:15:24;;;;;;;3.85;2.67;;;11.00;99.90;;;;;;4981400;28;89664;-33
2023/12/25 03:17:49;;;;;;;3.65;1.95;;;11.00;99.90;;;;;;4980844;28;89152;-30
2023/12/25 03:20:15;;;;;;;13.20;1.73;;;10.90;99.90;;;;;;4980643;28;89881;-31
2023/12/25 03:22:41;;;;;;;3.78;1.85;;;10.90;99.90;;;;;;4980700;28;89821;-31
2023/12/25 03:25:06;;;;;;;6.15;2.75;;;10.90;99.90;;;;;;4981666;28;90543;-30
2023/12/25 03:27:32;;;;;;;3.67;1.63;;;10.90;99.90;;;;;;4981357;28;90312;-30
2023/12/25 03:29:58;;;;;;;2.53;1.67;;;10.90;99.90;;;;;;4982046;28;89642;-30
2023/12/25 03:32:23;;;;;;;4.70;1.92;;;10.90;99.90;;;;;;4980369;28;89210;-30
2023/12/25 03:34:49;;;;;;;6.22;2.17;;;10.90;99.90;;;;;;4980195;28;88573;-31
2023/12/25 03:37:18;;;;;;;3.95;1.65;;;10.90;99.90;;;;;;4980985;28;88508;-34
2023/12/25 03:39:44;;;;;;;4.53;1.98;;;10.90;99.90;;;;;;4980990;28;90945;-31
2023/12/25 03:42:09;;;;;;;5.28;2.17;;;11.00;99.90;;;;;;4980431;28;90959;-30
2023/12/25 03:44:35;;;;;;;4.75;2.28;;;11.00;99.90;;;;;;4980670;28;91735;-30
2023/12/25 03:47:02;;;;;;;4.25;2.20;;;10.90;99.90;;;;;;4980670;28;88067;-32
2023/12/25 03:49:28;;;;;;;7.80;1.33;;;10.90;99.90;;;;;;4981333;28;90185;-30
2023/12/25 03:51:55;;;;;;;9.05;1.85;;;10.90;99.90;;;;;;4980254;28;89571;-31
2023/12/25 03:54:21;;;;;;;7.50;1.60;;;10.90;99.90;;;;;;4981072;28;89323;-32
2023/12/25 03:56:47;;;;;;;3.13;1.88;;;11.00;99.90;;;;;;4981512;28;88391;-29
2023/12/25 03:59:13;;;;;;;6.65;1.70;;;11.00;99.90;;;;;;4979801;28;89283;-30
2023/12/25 04:01:38;;;;;;;1.30;1.20;;;11.00;99.90;;;;;;4981225;28;90684;-30
2023/12/25 04:04:05;;;;;;;4.35;2.25;;;11.00;99.90;;;;;;4980724;28;89748;-31
2023/12/25 04:06:30;;;;;;;5.57;1.75;;;11.00;99.90;;;;;;4979979;28;90326;-32
2023/12/25 04:08:56;;;;;;;4.88;1.67;;;11.00;99.90;;;;;;4980444;28;90316;-34
2023/12/25 04:11:23;;;;;;;5.03;2.10;;;11.00;99.90;;;;;;4979659;28;90294;-29
2023/12/25 04:13:53;;;;;;;5.57;2.25;;;10.90;99.90;;;;;;4980810;28;89724;-33
2023/12/25 04:16:23;;;;;;;4.25;1.55;;;11.00;99.90;;;;;;4980961;28;89392;-31
2023/12/25 04:18:49;;;;;;;6.15;2.08;;;10.90;99.90;;;;;;4980475;28;90236;-33
2023/12/25 04:21:41;;;;;;;5.18;2.15;;;11.00;99.90;;;;;;4980351;28;89936;-30
2023/12/25 04:24:07;;;;;;;2.83;1.48;;;10.90;99.90;;;;;;4976460;28;89109;-34
2023/12/25 04:26:33;;;;;;;3.30;1.75;;;10.90;99.90;;;;;;4980616;28;89182;-30
2023/12/25 04:28:59;;;;;;;4.97;1.80;;;10.90;99.90;;;;;;4979921;28;89936;-31
2023/12/25 04:31:24;;;;;;;4.38;1.95;;;10.90;99.90;;;;;;4979599;28;90719;-31
2023/12/25 04:33:50;;;;;;;8.18;2.28;;;10.90;99.90;;;;;;4979500;28;91365;-32
2023/12/25 04:36:16;;;;;;;4.15;2.28;;;10.80;99.90;;;;;;4978174;28;88184;-30
2023/12/25 04:38:41;;;;;;;2.60;2.40;;;10.90;99.90;;;;;;4980087;28;90273;-31
2023/12/25 04:41:07;;;;;;;6.72;2.85;;;10.80;99.90;;;;;;4979497;28;90250;-33
2023/12/25 04:43:33;;;;;;;6.07;1.73;;;10.90;99.90;;;;;;4979916;28;89577;-32
2023/12/25 04:45:58;;;;;;;1.90;1.63;;;10.90;99.90;;;;;;4979398;28;90063;-31
2023/12/25 04:48:24;;;;;;;1.42;1.25;;;10.90;99.90;;;;;;4979953;28;89778;-34
2023/12/25 04:50:49;;;;;;;2.75;1.50;;;10.90;99.90;;;;;;4979395;28;89574;-30
2023/12/25 04:53:15;;;;;;;4.65;1.55;;;10.90;99.90;;;;;;4979568;28;89584;-33
2023/12/25 04:55:41;;;;;;;2.17;0.95;;;11.00;99.90;;;;;;4979790;28;88245;-32
2023/12/25 04:58:07;;;;;;;2.83;1.60;;;10.90;99.90;;;;;;4979176;28;90943;-31
2023/12/25 05:00:33;;;;;;;4.88;2.40;;;11.00;99.90;;;;;;4979818;28;89940;-33
2023/12/25 05:02:59;;;;;;;7.75;1.92;;;11.00;99.90;;;;;;4978901;28;91035;-30
2023/12/25 05:05:28;;;;;;;6.43;2.47;;;11.00;99.90;;;;;;4979499;28;88769;-33
2023/12/25 05:07:53;;;;;;;7.25;2.05;;;11.00;99.90;;;;;;4979518;28;89901;-31
2023/12/25 05:10:19;;;;;;;7.60;2.10;;;11.00;99.90;;;;;;4979714;28;91102;-30
2023/12/25 05:12:44;;;;;;;2.67;1.17;;;11.00;99.90;;;;;;4979477;28;89800;-31
2023/12/25 05:15:10;;;;;;;4.85;1.92;;;11.00;99.90;;;;;;4979972;28;88322;-32
2023/12/25 05:17:36;;;;;;;6.50;1.80;;;11.00;99.90;;;;;;4979526;28;90701;-31
2023/12/25 05:20:02;;;;;;;4.00;2.30;;;11.00;99.90;;;;;;4978570;28;90126;-31
2023/12/25 05:22:27;;;;;;;2.22;1.70;;;11.00;99.90;;;;;;4980197;28;90511;-29
2023/12/25 05:24:53;;;;;;;7.20;2.80;;;11.00;99.90;;;;;;4978733;28;89698;-33
2023/12/25 05:27:19;;;;;;;7.97;1.70;;;11.00;99.90;;;;;;4979576;28;90382;-29
2023/12/25 05:29:44;;;;;;;1.63;1.50;;;11.00;99.90;;;;;;4978547;28;89468;-30
2023/12/25 05:32:10;;;;;;;2.60;1.50;;;11.00;99.90;;;;;;4979421;28;88589;-30
2023/12/25 05:34:35;;;;;;;15.02;2.60;;;11.00;99.90;;;;;;4978839;28;88431;-30
2023/12/25 05:37:01;;;;;;;5.47;2.30;;;11.00;99.90;;;;;;4979052;28;90669;-32
2023/12/25 05:39:26;;;;;;;4.43;2.35;;;11.00;99.90;;;;;;4978652;28;89219;-30
2023/12/25 05:41:53;;;;;;;5.68;1.27;;;11.00;99.90;;;;;;4979688;28;89669;-30
2023/12/25 05:44:19;;;;;;;3.50;1.25;;;11.00;99.90;;;;;;4979076;28;88915;-33
2023/12/25 05:46:44;;;;;;;6.25;1.73;;;11.00;99.90;;;;;;4979273;28;90044;-31
2023/12/25 05:49:10;;;;;;;3.22;1.70;;;10.90;99.90;;;;;;4978409;28;89019;-31
2023/12/25 05:51:35;;;;;;;10.65;2.95;;;11.00;99.90;;;;;;4978961;28;90889;-33
2023/12/25 05:54:01;;;;;;;2.80;1.83;;;11.00;99.90;;;;;;4978892;28;89874;-31
2023/12/25 05:56:27;;;;;;;2.70;2.08;;;11.00;99.90;;;;;;4979662;28;89839;-29
2023/12/25 05:58:53;;;;;;;5.05;1.58;;;11.00;99.90;;;;;;4978005;28;89315;-34
2023/12/25 06:01:18;;;;;;;1.95;1.27;;;11.00;99.90;;;;;;4979301;28;89684;-30
2023/12/25 06:03:44;;;;;;;3.80;1.23;;;11.00;99.90;;;;;;4978497;28;88715;-30
2023/12/25 06:06:10;;;;;;;2.88;1.65;;;10.90;99.90;;;;;;4978505;28;89832;-33
2023/12/25 06:08:36;;;;;;;5.70;3.00;;;10.90;99.90;;;;;;4978359;28;89160;-33
2023/12/25 06:11:02;;;;;;;1.20;1.10;;;11.00;99.90;;;;;;4978627;28;89468;-29
2023/12/25 06:13:27;;;;;;;7.45;1.63;;;10.90;99.90;;;;;;4972832;28;87771;-32
2023/12/25 06:15:54;;;;;;;2.60;1.52;;;10.90;99.90;;;;;;4977859;28;90234;-30
2023/12/25 06:18:19;;;;;;;3.45;2.47;;;10.90;99.90;;;;;;4978423;28;91429;-33
2023/12/25 06:20:46;;;;;;;7.13;2.25;;;10.90;99.90;;;;;;4979199;28;90350;-31
2023/12/25 06:23:12;;;;;;;5.63;2.80;;;10.90;99.90;;;;;;4978686;28;89233;-29
2023/12/25 06:25:38;;;;;;;2.80;2.17;;;10.80;99.90;;;;;;4979287;28;89997;-32
2023/12/25 06:28:04;;;;;;;3.10;1.55;;;10.80;99.90;;;;;;4977968;28;89854;-32
2023/12/25 06:30:29;;;;;;;5.72;1.52;;;10.80;99.90;;;;;;4978884;28;88149;-30
2023/12/25 06:32:55;;;;;;;4.55;1.30;;;10.80;99.90;;;;;;4978333;28;89801;-31
2023/12/25 06:35:21;;;;;;;2.92;1.75;;;10.70;99.90;;;;;;4978416;28;89161;-30
2023/12/25 06:37:47;;;;;;;3.25;1.48;;;10.70;99.90;;;;;;4978809;28;89733;-32
2023/12/25 06:40:13;;;;;;;10.82;2.33;;;10.70;99.90;;;;;;4977895;28;88550;-29
2023/12/25 06:42:38;;;;;;;4.38;2.38;;;10.70;99.90;;;;;;4978003;28;89261;-29
2023/12/25 06:45:08;;;;;;;5.30;1.95;;;10.60;99.90;;;;;;4978155;28;91783;-30
2023/12/25 06:47:36;;;;;;;2.72;1.02;;;10.60;99.90;;;;;;4978504;28;89977;-30
2023/12/25 06:50:02;;;;;;;3.75;1.85;;;10.60;99.90;;;;;;4977727;28;89493;-33
2023/12/25 06:52:28;;;;;;;5.82;2.53;;;10.60;99.90;;;;;;4978488;28;89428;-29
2023/12/25 06:54:53;;;;;;;8.55;2.65;;;10.50;99.90;;;;;;4978629;28;90124;-31
2023/12/25 06:57:19;;;;;;;12.77;2.90;;;10.60;99.90;;;;;;4977965;28;90530;-32
2023/12/25 06:59:45;;;;;;;12.43;2.53;;;10.60;99.90;;;;;;4978456;28;90396;-30
2023/12/25 07:02:11;;;;;;;6.28;2.40;;;10.60;99.90;;;;;;4977620;28;89228;-30
2023/12/25 07:04:37;;;;;;;1.40;1.20;;;10.60;99.90;;;;;;4977507;28;89158;-32
2023/12/25 07:07:03;;;;;;;4.43;1.60;;;10.50;99.90;;;;;;4978694;28;90978;-29
2023/12/25 07:09:29;;;;;;;3.20;1.95;;;10.50;99.90;;;;;;4979082;28;89778;-29
2023/12/25 07:11:55;;;;;;;8.38;2.13;;;10.50;99.90;;;;;;4981859;28;89122;-28
2023/12/25 07:14:21;;;;;;;5.15;2.03;;;10.50;99.90;;;;;;4980841;28;90179;-29
2023/12/25 07:16:47;;;;;;;3.78;1.75;;;10.50;99.90;;;;;;4981931;28;89593;-34
2023/12/25 07:19:13;;;;;;;3.60;1.63;;;10.50;99.90;;;;;;4981122;28;89062;-28
2023/12/25 07:21:39;;;;;;;8.27;1.50;;;10.50;99.90;;;;;;4979382;28;89366;-31
2023/12/25 07:24:05;;;;;;;11.95;2.33;;;10.40;99.90;;;;;;4980855;28;89899;-29
2023/12/25 07:26:31;;;;;;;7.53;2.05;;;10.40;99.90;;;;;;4980169;28;88940;-31
2023/12/25 07:28:58;;;;;;;3.00;2.13;;;10.40;99.90;;;;;;4981187;28;90196;-32
2023/12/25 07:31:23;;;;;;;4.25;1.27;;;10.30;99.90;;;;;;4981021;28;89047;-33
2023/12/25 07:33:51;;;;;;;1.85;1.08;;;10.30;99.90;;;;;;4980288;28;90167;-32
2023/12/25 07:36:17;;;;;;;2.07;1.40;;;10.30;99.90;;;;;;4980403;28;88963;-31
2023/12/25 07:38:43;;;;;;;6.13;2.25;;;10.30;99.90;;;;;;4981407;28;89192;-31
2023/12/25 07:43:42;;;;;;;6.07;1.42;;;10.30;99.90;;;;;;4973632;28;89934;-33
2023/12/25 07:46:08;;;;;;;10.32;2.80;;;10.30;99.90;;;;;;4971151;28;90734;-33
2023/12/25 07:48:35;;;;;;;7.43;3.05;;;10.20;99.90;;;;;;4961488;28;90319;-31
2023/12/25 07:51:00;;;;;;;6.22;1.95;;;10.20;99.90;;;;;;4965897;28;89510;-29
2023/12/25 07:53:26;;;;;;;5.20;1.90;;;10.20;99.90;;;;;;4967661;28;90011;-32
2023/12/25 07:55:52;;;;;;;5.18;2.17;;;10.20;99.90;;;;;;4965050;28;89693;-32
2023/12/25 07:58:17;;;;;;;4.60;2.17;;;10.20;99.90;;;;;;4963120;28;91113;-31
2023/12/25 08:00:43;;;;;;;5.45;2.05;;;10.20;99.90;;;;;;4971059;28;89155;-29
2023/12/25 08:03:11;;;;;;;4.75;2.25;;;10.10;99.90;;;;;;4977588;28;90126;-30
2023/12/25 08:05:38;;;;;;;3.80;1.53;;;10.10;99.90;;;;;;4980329;28;89686;-33
2023/12/25 08:08:04;;;;;;;3.47;1.65;;;10.10;99.90;;;;;;4963359;28;89752;-32
2023/12/25 08:10:30;;;;;;;2.70;1.40;;;10.10;99.90;;;;;;4971115;28;89191;-31
2023/12/25 08:12:56;;;;;;;2.30;1.67;;;10.10;99.90;;;;;;4978930;28;89515;-33
2023/12/25 08:15:21;;;;;;;4.07;1.70;;;10.00;99.90;;;;;;4980361;28;89217;-29
2023/12/25 08:17:47;;;;;;;1.63;1.52;;;10.10;99.90;;;;;;4974445;28;89771;-30
2023/12/25 08:20:12;;;;;;;2.67;1.95;;;10.10;99.90;;;;;;4961104;28;88997;-33
2023/12/25 08:22:38;;;;;;;2.80;1.38;;;10.10;99.90;;;;;;4964191;28;90877;-32
2023/12/25 08:25:04;;;;;;;3.72;2.05;;;10.00;99.90;;;;;;4963010;28;88462;-31
2023/12/25 08:27:29;;;;;;;9.82;2.45;;;10.10;99.90;;;;;;4967726;28;90226;-32
2023/12/25 08:29:55;;;;;;;5.88;1.38;;;10.10;99.90;;;;;;4972691;28;89366;-29
2023/12/25 08:32:21;;;;;;;10.05;2.63;;;10.00;99.90;;;;;;4973634;28;90725;-32
2023/12/25 08:34:47;;;;;;;7.03;1.80;;;10.00;99.90;;;;;;4979506;28;90460;-32
2023/12/25 08:37:12;;;;;;;7.05;2.08;;;10.00;99.90;;;;;;4978493;28;90026;-30
2023/12/25 08:39:38;;;;;;;9.02;2.08;;;10.00;99.90;;;;;;4980504;28;89049;-34
2023/12/25 08:42:04;;;;;;;5.25;2.45;;;10.00;99.90;;;;;;4978543;28;89813;-29
2023/12/25 08:44:32;;;;;;;4.93;2.17;;;10.00;99.90;;;;;;4980063;28;87961;-33
2023/12/25 08:46:58;;;;;;;2.13;1.93;;;10.00;99.90;;;;;;4979340;28;89342;-31
2023/12/25 08:49:24;;;;;;;8.13;3.08;;;10.00;99.90;;;;;;4979507;28;88093;-30
2023/12/25 08:51:50;;;;;;;6.32;2.00;;;10.00;99.90;;;;;;4978148;28;90665;-29
2023/12/25 08:54:17;;;;;;;5.35;1.85;;;10.00;99.90;;;;;;4979821;28;89558;-29
2023/12/25 08:56:43;;;;;;;6.93;2.85;;;10.00;99.90;;;;;;4964143;28;88877;-31
2023/12/25 08:59:09;;;;;;;11.30;2.35;;;10.00;99.90;;;;;;4954665;28;89753;-30
2023/12/25 09:01:35;;;;;;;1.65;1.52;;;10.00;99.90;;;;;;4962013;28;88815;-31
2023/12/25 09:04:01;;;;;;;5.72;1.98;;;10.00;99.90;;;;;;4959938;28;89388;-30
2023/12/25 09:06:26;;;;;;;11.60;3.03;;;10.00;99.90;;;;;;4961397;28;89832;-32
2023/12/25 09:08:52;;;;;;;7.28;1.92;;;10.00;99.90;;;;;;4961128;28;88683;-33
2023/12/25 09:11:18;;;;;;;10.88;2.30;;;10.00;99.90;;;;;;4961940;28;90897;-30
2023/12/25 09:13:44;;;;;;;5.68;1.67;;;10.10;99.90;;;;;;4958780;28;89942;-31
2023/12/25 09:16:10;;;;;;;8.38;2.97;;;10.10;99.90;;;;;;4961803;28;89808;-32
2023/12/25 09:18:36;;;;;;;9.52;2.45;;;10.10;99.90;;;;;;4960815;28;89153;-32
2023/12/25 09:21:02;;;;;;;7.03;2.13;;;10.10;99.90;;;;;;4960742;28;90061;-33
2023/12/25 09:23:28;;;;;;;8.18;1.73;;;10.10;99.90;;;;;;4959649;28;90597;-31
2023/12/25 09:25:54;;;;;;;7.68;2.55;;;10.10;99.90;;;;;;4961411;28;89708;-31
2023/12/25 09:28:19;;;;;;;11.38;2.67;;;10.10;99.90;;;;;;4965461;28;90939;-35
2023/12/25 09:30:45;;;;;;;4.80;1.92;;;10.10;99.90;;;;;;4976348;28;90416;-30
2023/12/25 09:33:11;;;;;;;3.92;2.42;;;10.10;99.90;;;;;;4975188;28;89838;-32
2023/12/25 09:35:36;;;;;;;4.20;2.05;;;10.10;99.90;;;;;;4976135;28;89080;-30
2023/12/25 09:38:02;;;;;;;3.72;2.40;;;10.10;99.90;;;;;;4968643;28;88202;-30
2023/12/25 09:40:30;;;;;;;2.47;1.42;;;10.10;99.90;;;;;;4957817;28;90037;-34
2023/12/25 09:43:01;;;;;;;8.52;4.25;;;10.20;99.90;;;;;;4973060;28;89678;-30
2023/12/25 09:45:35;;;;;;;17.30;2.60;;;10.20;99.90;;;;;;4976873;28;90071;-33
2023/12/25 09:48:01;;;;;;;4.18;1.33;;;10.20;99.90;;;;;;4976390;28;90238;-30
2023/12/25 09:50:27;;;;;;;7.32;2.40;;;10.20;99.90;;;;;;4964171;28;89704;-33
2023/12/25 09:52:53;;;;;;;7.25;2.92;;;10.20;99.90;;;;;;4974799;28;89444;-30
2023/12/25 09:55:18;;;;;;;8.07;3.08;;;10.20;99.90;;;;;;4975318;28;90053;-31
2023/12/25 09:57:45;;;;;;;3.97;1.98;;;10.30;99.90;;;;;;4974307;28;88086;-32
2023/12/25 10:00:11;;;;;;;7.03;3.17;;;10.30;99.90;;;;;;4975012;28;90203;-31
2023/12/25 10:02:44;;;;;;;6.78;3.03;;;10.20;99.90;;;;;;4974083;28;89754;-30
2023/12/25 10:05:09;;;;;;;7.53;2.63;;;10.30;99.90;;;;;;4974993;28;90464;-33
2023/12/25 10:07:35;;;;;;;5.78;3.17;;;10.30;99.90;;;;;;4974293;28;89202;-33
2023/12/25 10:10:01;;;;;;;6.78;2.30;;;10.40;99.90;;;;;;4975640;28;89880;-30
2023/12/25 10:12:26;;;;;;;7.25;2.08;;;10.40;99.90;;;;;;4972576;28;91324;-31
2023/12/25 10:14:52;;;;;;;3.78;1.65;;;10.40;99.90;;;;;;4974081;28;90230;-33
2023/12/25 10:17:18;;;;;;;3.33;1.48;;;10.50;99.90;;;;;;4972983;28;89319;-33
2023/12/25 10:19:57;;;;;;;6.80;2.53;;;10.50;99.90;;;;;;4974636;28;89738;-31
2023/12/25 10:22:34;;;;;;;6.95;2.42;;;10.50;99.90;;;;;;4974782;28;89627;-30
2023/12/25 10:25:11;;;;;;;2.55;1.50;;;10.50;99.90;;;;;;4976077;28;89160;-31
2023/12/25 10:27:44;;;;;;;8.20;2.30;;;10.50;99.90;;;;;;4951725;28;89470;-32
2023/12/25 10:30:25;;;;;;;5.30;2.85;;;10.50;99.90;;;;;;4963808;28;89848;-33
2023/12/25 10:33:13;;;;;;;7.32;2.63;;;10.60;99.90;;;;;;4971608;28;90243;-30
2023/12/25 10:35:39;;;;;;;4.37;2.00;;;10.60;99.90;;;;;;4971905;28;90151;-32
2023/12/25 10:38:05;;;;;;;4.72;1.70;;;10.60;99.90;;;;;;4960851;28;89914;-31
2023/12/25 10:40:32;;;;;;;8.85;2.63;;;10.60;99.90;;;;;;4957472;28;90185;-31
2023/12/25 10:42:58;;;;;;;10.68;2.40;;;10.60;99.90;;;;;;4951585;28;88792;-30
2023/12/25 10:45:25;;;;;;;8.30;2.60;;;10.60;99.90;;;;;;4965426;28;90398;-30
2023/12/25 10:47:53;;;;;;;5.18;1.67;;;10.60;99.90;;;;;;4976323;28;88398;-31
2023/12/25 10:50:20;;;;;;;8.83;2.80;;;10.60;99.90;;;;;;4972456;28;90273;-31
2023/12/25 10:52:50;;;;;;;5.88;2.50;;;10.50;99.90;;;;;;4970973;28;90096;-33
2023/12/25 10:55:32;;;;;;;6.63;1.50;;;10.50;99.90;;;;;;4973347;28;89963;-32
2023/12/25 10:57:59;;;;;;;8.23;3.33;;;10.50;99.90;;;;;;4968643;28;88917;-29
2023/12/25 11:00:26;;;;;;;2.28;1.70;;;10.50;99.90;;;;;;4974429;28;90677;-30
2023/12/25 11:02:53;;;;;;;3.75;1.85;;;10.50;99.90;;;;;;4962740;28;91696;-31
2023/12/25 11:05:20;;;;;;;4.32;1.95;;;10.50;99.90;;;;;;4974184;28;88554;-29
2023/12/25 11:07:46;;;;;;;13.48;2.83;;;10.50;99.90;;;;;;4976562;28;88124;-33
2023/12/25 11:10:12;;;;;;;4.32;2.13;;;10.50;99.90;;;;;;4978463;28;90233;-33
2023/12/25 11:12:38;;;;;;;5.80;2.95;;;10.50;99.90;;;;;;4974558;28;89825;-32
2023/12/25 11:15:05;;;;;;;9.45;3.20;;;10.50;99.90;;;;;;4967846;28;89960;-33
2023/12/25 11:17:35;;;;;;;3.10;1.77;;;10.40;99.90;;;;;;4972646;28;88784;-33
2023/12/25 11:20:04;;;;;;;4.82;2.97;;;10.50;99.90;;;;;;4976406;28;89311;-30
2023/12/25 11:22:32;;;;;;;6.63;3.83;;;10.40;99.90;;;;;;4973561;28;89677;-32
2023/12/25 11:25:00;;;;;;;8.30;2.75;;;10.40;99.90;;;;;;4975427;28;89431;-29
2023/12/25 11:27:26;;;;;;;13.82;2.95;;;10.40;99.90;;;;;;4972569;28;90243;-31
2023/12/25 11:30:08;;;;;;;3.83;2.08;;;10.40;99.90;;;;;;4971152;28;89996;-33
2023/12/25 11:32:37;;;;;;;2.40;1.98;;;10.40;99.90;;;;;;4973996;28;89815;-31
2023/12/25 11:35:04;;;;;;;12.25;2.72;;;10.40;99.90;;;;;;4977759;28;89046;-29
2023/12/25 11:37:30;;;;;;;5.80;2.15;;;10.40;99.90;;;;;;4978943;28;87856;-31
2023/12/25 11:40:00;;;;;;;8.05;2.00;;;10.40;99.90;;;;;;4978222;28;90022;-29
2023/12/25 11:42:26;;;;;;;7.18;3.25;;;10.40;99.90;;;;;;4965465;28;89682;-33
2023/12/25 11:44:58;;;;;;;5.63;2.55;;;10.40;99.90;;;;;;4978167;28;89408;-33
2023/12/25 11:47:36;;;;;;;7.07;2.53;;;10.50;99.90;;;;;;4977256;28;88895;-31
2023/12/25 11:50:02;;;;;;;3.03;1.92;;;10.50;99.90;;;;;;4978325;28;90793;-31
2023/12/25 11:52:43;;;;;;;12.52;2.85;;;10.50;99.90;;;;;;4977554;28;90127;-32
2023/12/25 11:55:36;;;;;;;6.47;2.33;;;10.50;99.90;;;;;;4975974;28;91751;-32
2023/12/25 11:58:02;;;;;;;5.03;3.20;;;10.60;99.90;;;;;;4954368;28;88005;-31
2023/12/25 12:00:33;;;;;;;11.02;2.63;;;10.60;99.90;;;;;;4968693;28;90358;-33
2023/12/25 12:03:00;;;;;;;9.80;1.75;;;10.60;99.90;;;;;;4956167;28;89760;-32
2023/12/25 12:05:27;;;;;;;5.82;1.95;;;10.60;99.90;;;;;;4971044;28;89998;-31
2023/12/25 12:07:53;;;;;;;6.60;2.78;;;10.60;99.90;;;;;;4972554;28;88688;-33
2023/12/25 12:10:18;;;;;;;2.55;1.98;;;10.60;99.90;;;;;;4977790;28;92559;-30
2023/12/25 12:12:44;;;;;;;5.80;3.17;;;10.70;99.90;;;;;;4977458;28;89950;-31
2023/12/25 12:15:10;;;;;;;10.93;3.85;;;10.60;99.90;;;;;;4970950;28;89315;-33
2023/12/25 12:17:36;;;;;;;8.70;2.22;;;10.60;99.90;;;;;;4971523;28;89590;-32
2023/12/25 12:20:03;;;;;;;7.30;2.30;;;10.60;99.90;;;;;;4970508;28;89325;-31
2023/12/25 12:22:29;;;;;;;3.90;2.05;;;10.60;99.90;;;;;;4959950;28;89002;-29
2023/12/25 12:25:14;;;;;;;8.85;3.05;;;10.60;99.90;;;;;;4975641;28;89737;-30
2023/12/25 12:27:40;;;;;;;13.63;3.47;;;10.70;99.90;;;;;;4967154;28;90322;-32
2023/12/25 12:30:07;;;;;;;8.45;2.10;;;10.80;99.90;;;;;;4974399;28;91780;-31
2023/12/25 12:32:34;;;;;;;12.27;2.85;;;10.90;99.90;;;;;;4963578;28;89712;-31
2023/12/25 12:35:00;;;;;;;7.80;2.70;;;10.90;99.90;;;;;;4977794;28;89604;-31
2023/12/25 12:37:25;;;;;;;10.32;3.00;;;10.90;99.90;;;;;;4977552;28;88603;-29
2023/12/25 12:39:51;;;;;;;2.55;2.13;;;10.90;99.90;;;;;;4976902;28;90498;-28
2023/12/25 12:42:17;;;;;;;5.22;2.00;;;10.90;99.90;;;;;;4974676;28;91268;-31
2023/12/25 12:44:48;;;;;;;4.20;1.90;;;10.90;99.90;;;;;;4976850;28;90649;-31